Smhi, Sweden

4:05 PM CEST on October 23, 2014 (GMT +0200)
Kaffebacken | Change Station
CLOSE
Current Station
Personal Weather Station
Location: Norrkoeping, OSTERGOTLAND
Elevation: 144 ft
Nearby Weather Stations

Elev 144 ft 58.58 °N, 16.18 °E | Updated 10 minutes ago

Overcast
Overcast
41.3 °F
Feels Like 36 °F
N
8.0
Wind Variable Wind from NW
Gusts 18.0 mph

Today
High -- | Low -- °F
--% Chance of Precip.
Yesterday
High -- | Low -- °F
Precip. -- in
7:49 AM 5:28 PM
Waning Crescent, 0% visible
Pressure 30.27 in
Visibility 6.2 miles
Clouds Mostly Cloudy 3000 ft
Overcast 5900 ft
Windchill 36 °F
Dew Point 34 °F
Humidity 74%
Rainfall 0.00 in
Snow Depth Not available.
UV 0 out of 12
Pollen Not available.
Air Quality Not available.
Flu Activity Not available.
METAR ESSP 231350Z 15013KT 9999 BKN030 OVC059 05/00 Q1025

More Conditions Fewer Conditions

Pressure 30.27 in
Visibility 6.2 miles
Clouds Mostly Cloudy 3000 ft
Overcast 5900 ft
Windchill 36 °F
Dew Point 34 °F
Humidity 74%
Rainfall 0.00 in
Snow Depth Not available.
UV 0 out of 12
Pollen Not available.
Air Quality Not available.
Flu Activity Not available.
METAR ESSP 231350Z 15013KT 9999 BKN030 OVC059 05/00 Q1025

More Conditions Fewer Conditions

10-Day Weather Forecast

Almanac

Astronomy

Oct. 23, 2014 Rise Set
Actual Time 7:49 AM CEST 5:28 PM CEST
Civil Twilight 7:08 AM CEST 6:09 PM CEST
Nautical Twilight 6:21 AM CEST 6:56 PM CEST
Astronomical Twilight 5:35 AM CEST 7:42 PM CEST
Moon 7:04 AM CEST 5:22 PM CEST
Length of Visible Light 11h 01m
Length of Day
9h 38m
Tomorrow will be 4m 59s shorter.
Waning Crescent, 0% of the Moon is Illuminated
Today
Waning Crescent
Oct 23
New
Oct 30
First Quarter
Nov 6
Full
Nov 14
Last Quarter

Yesterday's Extremes

Country Highs Country Lows

Community

WunderPhotos

Upload Photos

1,764,247 photos uploaded!

Nearby

Snow Depth

Not available.

Earthquake Activity

City Distance Mag. Time & Date
No recent earthquake activity has been reported nearby.
Minimum magnitude displayed is 2.5.

Coastal Water Temperatures

Place Temperature
No Stations Reporting

Nearby Weather Stations